Time;durP1;ratioP1;P1;durP2;ratioP2;P2;SDS_P1;SDS_P2;PMS_P1;PMS_P2;Temp;Humidity;BMP_temperature;BMP_pressure;BME280_temperature;BME280_humidity;BME280_pressure;Samples;Min_cycle;Max_cycle;Signal;HPM_P1;HPM_P2
2021/12/11 00:01:03;;;;;;;57.30;29.08;;;;;;;-146.48;100.00;60459.00;5347368;27;20031;-69
2021/12/11 00:03:39;;;;;;;45.43;27.13;;;;;;;-146.48;100.00;60459.00;5348617;27;20497;-69
2021/12/11 00:06:19;;;;;;;44.95;25.85;;;;;;;-146.48;100.00;60459.00;5348497;27;20508;-69
2021/12/11 00:08:56;;;;;;;50.85;25.77;;;;;;;-146.48;100.00;60459.00;5347455;27;20106;-70
2021/12/11 00:11:34;;;;;;;42.42;24.77;;;;;;;-146.48;100.00;60459.00;5348505;27;20027;-69
2021/12/11 00:14:08;;;;;;;44.27;26.10;;;;;;;-146.48;100.00;60459.00;5347060;27;20363;-69
2021/12/11 00:16:42;;;;;;;44.78;26.95;;;;;;;-146.48;100.00;60459.00;5347685;27;20087;-70
2021/12/11 00:19:20;;;;;;;51.07;28.93;;;;;;;-146.48;100.00;60459.00;5348153;27;20054;-69
2021/12/11 00:21:53;;;;;;;42.23;27.00;;;;;;;-146.48;100.00;60459.00;5346707;27;20020;-70
2021/12/11 00:24:26;;;;;;;42.75;25.73;;;;;;;-146.48;100.00;60459.00;5348105;27;20027;-69
2021/12/11 00:27:03;;;;;;;42.15;26.63;;;;;;;-146.48;100.00;60459.00;5347329;27;20023;-69
2021/12/11 00:29:35;;;;;;;41.80;26.40;;;;;;;-146.48;100.00;60459.00;5347489;27;20359;-70
2021/12/11 00:32:09;;;;;;;45.58;27.48;;;;;;;-146.48;100.00;60459.00;5347527;27;20024;-69
2021/12/11 00:34:43;;;;;;;41.30;25.73;;;;;;;-146.48;100.00;60459.00;5347184;27;20065;-70
2021/12/11 00:37:18;;;;;;;47.03;26.55;;;;;;;-146.48;100.00;60459.00;5347023;27;20046;-69
2021/12/11 00:39:57;;;;;;;43.33;26.98;;;;;;;-146.48;100.00;60459.00;5347432;27;20327;-69
2021/12/11 00:42:34;;;;;;;47.95;27.65;;;;;;;-146.48;100.00;60459.00;5346998;27;20027;-69
2021/12/11 00:45:14;;;;;;;46.47;28.33;;;;;;;-146.48;100.00;60459.00;5346986;27;20038;-69
2021/12/11 00:47:55;;;;;;;47.65;27.85;;;;;;;-146.48;100.00;60459.00;5346934;27;20050;-69
2021/12/11 00:50:31;;;;;;;48.63;28.77;;;;;;;-146.48;100.00;60459.00;5346597;27;20406;-69
2021/12/11 00:53:13;;;;;;;45.20;27.13;;;;;;;-146.48;100.00;60459.00;5347102;27;20534;-69
2021/12/11 00:55:47;;;;;;;47.47;28.43;;;;;;;-146.48;100.00;60459.00;5347077;27;20474;-69
2021/12/11 00:58:23;;;;;;;47.97;28.03;;;;;;;-146.48;100.00;60459.00;5346617;27;20031;-69
2021/12/11 01:01:07;;;;;;;44.88;27.55;;;;;;;-146.48;100.00;60459.00;5347177;27;20023;-69
2021/12/11 01:03:53;;;;;;;50.53;29.03;;;;;;;-146.48;100.00;60459.00;5346217;27;20403;-69
2021/12/11 01:06:25;;;;;;;45.08;26.52;;;;;;;-146.48;100.00;60459.00;5347275;27;20042;-69
2021/12/11 01:09:03;;;;;;;54.45;29.58;;;;;;;-146.48;100.00;60459.00;5346404;27;20632;-69
2021/12/11 01:11:42;;;;;;;46.17;27.25;;;;;;;-146.48;100.00;60459.00;5346460;27;20119;-69
2021/12/11 01:14:31;;;;;;;46.63;27.70;;;;;;;-146.48;100.00;60459.00;5347216;27;20058;-70
2021/12/11 01:17:07;;;;;;;50.25;28.33;;;;;;;-146.48;100.00;60459.00;5346300;27;20030;-70
2021/12/11 01:19:44;;;;;;;48.30;29.83;;;;;;;-146.48;100.00;60459.00;5345761;27;20114;-69
2021/12/11 01:22:32;;;;;;;50.13;29.25;;;;;;;-146.48;100.00;60459.00;5347018;27;20464;-70
2021/12/11 01:25:09;;;;;;;45.83;28.50;;;;;;;-146.48;100.00;60459.00;5345460;27;20080;-69
2021/12/11 01:27:44;;;;;;;53.92;28.33;;;;;;;-146.48;100.00;60459.00;5346505;27;20080;-69
2021/12/11 01:30:20;;;;;;;50.30;28.57;;;;;;;-146.48;100.00;60459.00;5346955;27;20050;-69
2021/12/11 01:32:51;;;;;;;51.33;27.60;;;;;;;-146.48;100.00;60459.00;5345487;27;20118;-69
2021/12/11 01:35:24;;;;;;;51.20;29.20;;;;;;;-146.48;100.00;60459.00;5346717;27;20551;-69
2021/12/11 01:38:05;;;;;;;52.63;28.60;;;;;;;-146.48;100.00;60459.00;5345937;27;20030;-69
2021/12/11 01:40:38;;;;;;;51.97;28.03;;;;;;;-146.48;100.00;60459.00;5345685;27;20470;-70
2021/12/11 01:43:10;;;;;;;48.23;26.33;;;;;;;-146.48;100.00;60459.00;5346702;27;20037;-69
2021/12/11 01:45:47;;;;;;;49.97;29.00;;;;;;;-146.48;100.00;60459.00;5345118;27;20038;-69
2021/12/11 01:48:30;;;;;;;44.87;27.30;;;;;;;-146.48;100.00;60459.00;5346466;27;20115;-68
2021/12/11 01:51:09;;;;;;;45.40;26.53;;;;;;;-146.48;100.00;60459.00;5345825;27;20386;-69
2021/12/11 01:53:47;;;;;;;44.63;26.13;;;;;;;-146.48;100.00;60459.00;5344863;27;20423;-68
2021/12/11 01:56:22;;;;;;;35.28;21.58;;;;;;;-146.48;100.00;60459.00;5346302;27;20437;-69
2021/12/11 01:59:04;;;;;;;49.70;26.83;;;;;;;-146.48;100.00;60459.00;5345403;27;20067;-69
2021/12/11 02:01:42;;;;;;;45.33;26.67;;;;;;;-146.48;100.00;60459.00;5345690;27;20486;-68
2021/12/11 02:04:17;;;;;;;43.70;26.85;;;;;;;-146.48;100.00;60459.00;5346143;27;20031;-68
2021/12/11 02:06:52;;;;;;;50.10;27.43;;;;;;;-146.48;100.00;60459.00;5344543;27;20541;-69
2021/12/11 02:09:33;;;;;;;44.07;27.07;;;;;;;-146.48;100.00;60459.00;5346185;27;20019;-68
2021/12/11 02:12:04;;;;;;;49.77;27.77;;;;;;;-146.48;100.00;60459.00;5345453;27;20027;-68
2021/12/11 02:14:41;;;;;;;45.83;26.77;;;;;;;-146.48;100.00;60459.00;5345235;27;20027;-69
2021/12/11 02:17:17;;;;;;;48.03;27.77;;;;;;;-146.48;100.00;60459.00;5345794;27;20023;-69
2021/12/11 02:19:49;;;;;;;46.60;27.23;;;;;;;-146.48;100.00;60459.00;5344750;27;20363;-69
2021/12/11 02:22:25;;;;;;;47.27;27.60;;;;;;;-146.48;100.00;60459.00;5344911;27;20031;-69
2021/12/11 02:25:00;;;;;;;43.83;25.93;;;;;;;-146.48;100.00;60459.00;5344988;27;20031;-68
2021/12/11 02:27:35;;;;;;;46.30;27.17;;;;;;;-146.48;100.00;60459.00;5345550;27;20056;-68
2021/12/11 02:30:24;;;;;;;46.20;26.23;;;;;;;-146.48;100.00;60459.00;5344937;27;20382;-69
2021/12/11 02:33:17;;;;;;;46.70;25.75;;;;;;;-146.48;100.00;60459.00;5345191;27;20184;-69
2021/12/11 02:35:54;;;;;;;42.53;25.73;;;;;;;-146.48;100.00;60459.00;5344504;27;20378;-69
2021/12/11 02:38:32;;;;;;;41.73;26.63;;;;;;;-146.48;100.00;60459.00;5345607;27;20019;-69
2021/12/11 02:41:10;;;;;;;41.83;25.10;;;;;;;-146.48;100.00;60459.00;5345128;27;20027;-69
2021/12/11 02:43:54;;;;;;;44.07;26.30;;;;;;;-146.48;100.00;60459.00;5344269;27;20444;-69
2021/12/11 02:46:38;;;;;;;46.63;26.27;;;;;;;-146.48;100.00;60459.00;5345515;27;20054;-69
2021/12/11 02:49:16;;;;;;;43.90;26.47;;;;;;;-146.48;100.00;60459.00;5344662;27;20596;-68
2021/12/11 02:51:59;;;;;;;40.43;24.70;;;;;;;-146.48;100.00;60459.00;5344851;27;20073;-68
2021/12/11 02:54:45;;;;;;;37.07;23.27;;;;;;;-146.48;100.00;60459.00;5345685;27;20546;-68
2021/12/11 02:57:31;;;;;;;41.03;24.83;;;;;;;-146.48;100.00;60459.00;5344573;27;20088;-68
2021/12/11 03:00:12;;;;;;;42.17;24.42;;;;;;;-146.48;100.00;60459.00;5344816;27;20402;-69
2021/12/11 03:02:49;;;;;;;40.87;24.80;;;;;;;-146.48;100.00;60459.00;5344337;28;20031;-69
2021/12/11 03:05:26;;;;;;;41.17;24.93;;;;;;;-146.48;100.00;60459.00;5345006;27;20030;-68
2021/12/11 03:08:01;;;;;;;42.63;25.75;;;;;;;-146.48;100.00;60459.00;5344707;28;20028;-69
2021/12/11 03:10:33;;;;;;;40.15;25.95;;;;;;;-146.48;100.00;60459.00;5344393;27;20023;-68
2021/12/11 03:13:05;;;;;;;39.83;25.00;;;;;;;-146.48;100.00;60459.00;5344445;27;20023;-68
2021/12/11 03:15:37;;;;;;;42.90;24.70;;;;;;;-146.48;100.00;60459.00;5344840;28;20027;-70
2021/12/11 03:18:10;;;;;;;45.60;25.37;;;;;;;-146.48;100.00;60459.00;5344592;28;20542;-69
2021/12/11 03:20:42;;;;;;;41.67;25.10;;;;;;;-146.48;100.00;60459.00;5344411;28;20031;-68
2021/12/11 03:23:15;;;;;;;40.27;25.00;;;;;;;-146.48;100.00;60459.00;5345361;27;20027;-69
2021/12/11 03:25:47;;;;;;;44.47;25.80;;;;;;;-146.48;100.00;60459.00;5343615;27;20110;-68
2021/12/11 03:28:20;;;;;;;38.83;24.40;;;;;;;-146.48;100.00;60459.00;5345056;28;20442;-70
2021/12/11 03:30:59;;;;;;;37.83;23.27;;;;;;;-146.48;100.00;60459.00;5345742;27;20042;-71
2021/12/11 03:33:36;;;;;;;;;;;;;;;-146.48;100.00;60459.00;5349731;27;20027;-70
2021/12/11 03:36:09;;;;;;;41.97;24.52;;;;;;;-146.48;100.00;60459.00;5348901;27;19911;-68
2021/12/11 03:38:49;;;;;;;40.80;24.60;;;;;;;-146.48;100.00;60459.00;5347508;27;20027;-69
2021/12/11 03:41:20;;;;;;;;;;;;;;;-146.48;100.00;60459.00;5349705;27;20022;-68
2021/12/11 03:43:52;;;;;;;43.55;24.38;;;;;;;-146.48;100.00;60459.00;5348441;27;20294;-69
2021/12/11 03:46:24;;;;;;;39.35;24.20;;;;;;;-146.48;100.00;60459.00;5348265;27;20023;-69
2021/12/11 03:48:59;;;;;;;39.57;23.97;;;;;;;-146.48;100.00;60459.00;5348026;27;20047;-68
2021/12/11 03:51:36;;;;;;;41.10;25.38;;;;;;;-146.48;100.00;60459.00;5348631;27;20020;-69
2021/12/11 03:54:11;;;;;;;41.42;25.13;;;;;;;-146.48;100.00;60459.00;5347686;27;20019;-69
2021/12/11 03:56:43;;;;;;;45.00;26.67;;;;;;;-146.48;100.00;60459.00;5347999;27;20023;-69
2021/12/11 03:59:15;;;;;;;37.05;24.60;;;;;;;-146.48;100.00;60459.00;5347693;27;20027;-68
2021/12/11 04:01:51;;;;;;;44.33;26.88;;;;;;;-146.48;100.00;60459.00;5348037;27;20098;-69
2021/12/11 04:04:33;;;;;;;46.67;27.20;;;;;;;-146.48;100.00;60459.00;5348710;27;20487;-68
2021/12/11 04:07:08;;;;;;;43.03;25.77;;;;;;;-146.48;100.00;60459.00;5347055;27;20042;-68
2021/12/11 04:09:40;;;;;;;43.58;26.15;;;;;;;-146.48;100.00;60459.00;5348045;27;20050;-68
2021/12/11 04:12:12;;;;;;;43.83;25.73;;;;;;;-146.48;100.00;60459.00;5348618;27;20031;-68
2021/12/11 04:14:47;;;;;;;44.13;25.98;;;;;;;-146.48;100.00;60459.00;5346981;27;20114;-69
2021/12/11 04:17:22;;;;;;;44.10;27.25;;;;;;;-146.48;100.00;60459.00;5348466;27;20058;-68
2021/12/11 04:19:57;;;;;;;44.13;26.05;;;;;;;-146.48;100.00;60459.00;5347627;27;20031;-69
2021/12/11 04:22:28;;;;;;;47.00;26.88;;;;;;;-146.48;100.00;60459.00;5347329;27;20118;-68
2021/12/11 04:25:00;;;;;;;44.55;26.25;;;;;;;-146.48;100.00;60459.00;5347714;27;20027;-69
2021/12/11 04:27:31;;;;;;;44.95;26.73;;;;;;;-146.48;100.00;60459.00;5347562;27;20046;-69
2021/12/11 04:30:07;;;;;;;44.00;25.15;;;;;;;-146.48;100.00;60459.00;5347458;27;20019;-69
2021/12/11 04:32:39;;;;;;;44.58;25.80;;;;;;;-146.48;100.00;60459.00;5347367;27;20027;-70
2021/12/11 04:35:13;;;;;;;43.65;26.33;;;;;;;-146.48;100.00;60459.00;5347346;27;20539;-69
2021/12/11 04:37:44;;;;;;;37.97;24.10;;;;;;;-146.48;100.00;60459.00;5347401;27;20054;-69
2021/12/11 04:40:21;;;;;;;41.75;24.75;;;;;;;-146.48;100.00;60459.00;5347831;27;20031;-69
2021/12/11 04:43:03;;;;;;;39.95;24.27;;;;;;;-146.48;100.00;60459.00;5345711;27;20030;-69
2021/12/11 04:46:05;;;;;;;40.25;24.30;;;;;;;-146.48;100.00;60459.00;5347768;27;20080;-69
2021/12/11 04:51:26;;;;;;;40.03;24.48;;;;;;;-146.48;100.00;60459.00;5347827;27;20035;-69
2021/12/11 04:54:15;;;;;;;40.72;24.23;;;;;;;-146.48;100.00;60459.00;5347127;27;20377;-70
2021/12/11 04:57:25;;;;;;;39.67;24.08;;;;;;;-146.48;100.00;60459.00;5346143;27;20027;-70
2021/12/11 05:13:26;;;;;;;38.10;22.23;;;;;;;-146.48;100.00;60459.00;5347380;27;20367;-69
2021/12/11 05:16:02;;;;;;;38.00;23.73;;;;;;;-146.48;100.00;60459.00;5346505;27;20387;-69
2021/12/11 05:18:35;;;;;;;41.90;24.77;;;;;;;-146.48;100.00;60459.00;5345994;27;20023;-69
2021/12/11 05:21:12;;;;;;;37.55;24.08;;;;;;;-146.48;100.00;60459.00;5346528;27;20039;-69
2021/12/11 05:23:44;;;;;;;39.65;22.92;;;;;;;-146.48;100.00;60459.00;5345669;27;20031;-70
2021/12/11 05:26:16;;;;;;;36.83;23.95;;;;;;;-146.48;100.00;60459.00;5347011;27;20363;-69
2021/12/11 05:28:48;;;;;;;38.67;22.73;;;;;;;-146.48;100.00;60459.00;5346388;27;20042;-70
2021/12/11 05:31:20;;;;;;;37.15;23.38;;;;;;;-146.48;100.00;60459.00;5346027;27;20027;-69
2021/12/11 05:33:51;;;;;;;37.95;23.50;;;;;;;-146.48;100.00;60459.00;5346143;27;20023;-69
2021/12/11 05:36:27;;;;;;;37.28;22.15;;;;;;;-146.48;100.00;60459.00;5346672;27;20107;-69
2021/12/11 05:39:00;;;;;;;41.15;24.20;;;;;;;-146.48;100.00;60459.00;5345225;27;20366;-70
2021/12/11 05:41:31;;;;;;;39.22;23.17;;;;;;;-146.48;100.00;60459.00;5346510;27;20027;-69
2021/12/11 05:44:04;;;;;;;36.80;23.38;;;;;;;-146.48;100.00;60459.00;5345825;27;20390;-69
2021/12/11 05:46:37;;;;;;;37.85;23.05;;;;;;;-146.48;100.00;60459.00;5345726;27;20110;-69
2021/12/11 05:49:09;;;;;;;36.60;22.00;;;;;;;-146.48;100.00;60459.00;5346067;27;20050;-69
2021/12/11 05:51:43;;;;;;;35.15;22.83;;;;;;;-146.48;100.00;60459.00;5344954;27;20034;-69
2021/12/11 05:54:22;;;;;;;35.53;22.80;;;;;;;-146.48;100.00;60459.00;5346269;27;20049;-69
2021/12/11 05:56:59;;;;;;;38.22;22.65;;;;;;;-146.48;100.00;60459.00;5345863;27;20023;-69
2021/12/11 05:59:30;;;;;;;37.40;21.73;;;;;;;-146.48;100.00;60459.00;5345519;27;20042;-69
2021/12/11 06:02:07;;;;;;;32.65;21.13;;;;;;;-146.48;100.00;60459.00;5345501;27;20035;-69
2021/12/11 06:04:41;;;;;;;36.20;22.92;;;;;;;-146.48;100.00;60459.00;5345392;27;20034;-69
2021/12/11 06:07:15;;;;;;;36.40;21.95;;;;;;;-146.48;100.00;60459.00;5345191;27;20134;-69
2021/12/11 06:09:52;;;;;;;36.40;23.20;;;;;;;-146.48;100.00;60459.00;5345521;27;20427;-70
2021/12/11 06:12:25;;;;;;;34.15;21.88;;;;;;;-146.48;100.00;60459.00;5345648;27;20039;-69
2021/12/11 06:14:57;;;;;;;33.00;21.55;;;;;;;-146.48;100.00;60459.00;5344344;27;20300;-69
2021/12/11 06:17:30;;;;;;;34.05;21.85;;;;;;;-146.48;100.00;60459.00;5346076;27;20482;-69
2021/12/11 06:20:05;;;;;;;33.33;21.67;;;;;;;-146.48;100.00;60459.00;5344374;27;20369;-69
2021/12/11 06:22:38;;;;;;;33.80;22.00;;;;;;;-146.48;100.00;60459.00;5345521;27;20030;-69
2021/12/11 06:25:17;;;;;;;36.60;23.80;;;;;;;-146.48;100.00;60459.00;5345465;27;20466;-69
2021/12/11 06:27:50;;;;;;;35.63;22.83;;;;;;;-146.48;100.00;60459.00;5344489;27;20042;-69
2021/12/11 06:30:22;;;;;;;39.38;24.40;;;;;;;-146.48;100.00;60459.00;5345700;27;20474;-69
2021/12/11 06:32:56;;;;;;;34.28;22.52;;;;;;;-146.48;100.00;60459.00;5345014;27;20393;-69
2021/12/11 06:35:33;;;;;;;37.60;24.15;;;;;;;-146.48;100.00;60459.00;5344822;27;20023;-68
2021/12/11 06:38:07;;;;;;;42.40;24.65;;;;;;;-146.48;100.00;60459.00;5344782;27;20031;-69
2021/12/11 06:40:39;;;;;;;50.03;27.30;;;;;;;-146.48;100.00;60459.00;5344725;27;20059;-69
2021/12/11 06:43:11;;;;;;;43.88;26.65;;;;;;;-146.48;100.00;60459.00;5344545;27;20501;-69
2021/12/11 06:45:43;;;;;;;45.13;27.77;;;;;;;-146.48;100.00;60459.00;5344835;27;20493;-69
2021/12/11 06:48:16;;;;;;;46.83;29.40;;;;;;;-146.48;100.00;60459.00;5344511;27;20023;-69
2021/12/11 06:50:48;;;;;;;48.05;30.48;;;;;;;-146.48;100.00;60459.00;5344519;27;20429;-69
2021/12/11 06:53:26;;;;;;;52.42;31.17;;;;;;;-146.48;100.00;60459.00;5345121;27;20035;-68
2021/12/11 06:55:57;;;;;;;46.10;28.90;;;;;;;-146.48;100.00;60459.00;5343890;27;20028;-69
2021/12/11 06:58:31;;;;;;;46.85;30.60;;;;;;;-146.48;100.00;60459.00;5345124;27;20036;-68
2021/12/11 07:01:04;;;;;;;46.67;29.50;;;;;;;-146.48;100.00;60459.00;5344492;27;20054;-69
2021/12/11 07:03:38;;;;;;;46.97;31.90;;;;;;;-146.48;100.00;60459.00;5344600;28;20015;-69
2021/12/11 07:06:09;;;;;;;48.60;31.58;;;;;;;-146.48;100.00;60459.00;5347415;27;20076;-69
2021/12/11 07:08:41;;;;;;;46.25;31.20;;;;;;;-146.48;100.00;60459.00;5349067;27;20019;-69
2021/12/11 07:11:13;;;;;;;43.80;30.60;;;;;;;-146.48;100.00;60459.00;5348645;27;20020;-68
2021/12/11 07:13:45;;;;;;;44.55;30.35;;;;;;;-146.48;100.00;60459.00;5349013;27;20451;-69
2021/12/11 07:16:17;;;;;;;45.25;28.60;;;;;;;-146.48;100.00;60459.00;5347249;27;20034;-69
2021/12/11 07:18:50;;;;;;;42.33;29.70;;;;;;;-146.48;100.00;60459.00;5347423;27;20038;-69
2021/12/11 07:21:21;;;;;;;41.08;28.00;;;;;;;-146.48;100.00;60459.00;5341415;27;20035;-69
2021/12/11 07:23:52;;;;;;;38.53;26.52;;;;;;;-146.48;100.00;60459.00;5345673;27;20024;-69
2021/12/11 07:26:31;;;;;;;42.70;28.52;;;;;;;-146.48;100.00;60459.00;5347656;27;20034;-69
2021/12/11 07:29:13;;;;;;;38.90;27.65;;;;;;;-146.48;100.00;60459.00;5347542;27;20023;-69
2021/12/11 07:31:46;;;;;;;39.25;26.15;;;;;;;-146.48;100.00;60459.00;5346437;27;20146;-68
2021/12/11 07:34:18;;;;;;;38.17;25.95;;;;;;;-146.48;100.00;60459.00;5348240;27;20322;-69
2021/12/11 07:36:51;;;;;;;38.65;25.75;;;;;;;-146.48;100.00;60459.00;5348763;27;20032;-69
2021/12/11 07:39:24;;;;;;;34.15;24.58;;;;;;;-146.48;100.00;60459.00;5348646;27;20032;-69
2021/12/11 07:41:56;;;;;;;35.72;23.30;;;;;;;-146.48;100.00;60459.00;5348441;27;20023;-69
2021/12/11 07:44:27;;;;;;;34.88;23.35;;;;;;;-146.48;100.00;60459.00;5348301;27;20019;-69
2021/12/11 07:47:00;;;;;;;37.65;22.88;;;;;;;-146.48;100.00;60459.00;5348406;27;20027;-69
2021/12/11 07:49:31;;;;;;;35.90;23.13;;;;;;;-146.48;100.00;60459.00;5348787;27;20397;-69
2021/12/11 07:52:04;;;;;;;33.88;22.30;;;;;;;-146.48;100.00;60459.00;5347628;27;20114;-69
2021/12/11 07:54:35;;;;;;;34.67;21.38;;;;;;;-146.48;100.00;60459.00;5348394;27;20034;-69
2021/12/11 07:57:06;;;;;;;30.80;19.85;;;;;;;-146.48;100.00;60459.00;5346615;27;20027;-69
2021/12/11 07:59:38;;;;;;;32.75;19.45;;;;;;;-146.48;100.00;60459.00;5345737;27;20027;-70
2021/12/11 08:02:09;;;;;;;30.50;17.95;;;;;;;-146.48;100.00;60459.00;5346695;27;20080;-69
2021/12/11 08:04:40;;;;;;;26.98;15.40;;;;;;;-146.48;100.00;60459.00;5346526;27;20042;-69
2021/12/11 08:07:12;;;;;;;26.05;14.63;;;;;;;-146.48;100.00;60459.00;5346357;27;20395;-69
2021/12/11 08:09:43;;;;;;;26.23;14.05;;;;;;;-146.48;100.00;60459.00;5346451;27;20019;-69
2021/12/11 08:12:15;;;;;;;27.02;13.70;;;;;;;-146.48;100.00;60459.00;5346435;27;20072;-68
2021/12/11 08:14:46;;;;;;;24.55;12.23;;;;;;;-146.48;100.00;60459.00;5345817;27;20050;-69
2021/12/11 08:17:19;;;;;;;22.85;10.68;;;;;;;-146.48;100.00;60459.00;5345663;27;20055;-69
2021/12/11 08:19:50;;;;;;;21.98;10.85;;;;;;;-146.48;100.00;60459.00;5345664;27;20027;-69
2021/12/11 08:22:21;;;;;;;20.42;10.30;;;;;;;-146.48;100.00;60459.00;5347008;27;20102;-69
2021/12/11 08:24:53;;;;;;;22.02;8.75;;;;;;;-146.48;100.00;60459.00;5346422;27;20123;-70
2021/12/11 08:27:26;;;;;;;19.52;9.52;;;;;;;-146.48;100.00;60459.00;5345747;27;20019;-69
2021/12/11 08:29:58;;;;;;;18.67;8.18;;;;;;;-146.48;100.00;60459.00;5346100;27;20030;-69
2021/12/11 08:32:29;;;;;;;26.50;7.10;;;;;;;-146.48;100.00;60459.00;5346524;27;20027;-70
2021/12/11 08:35:02;;;;;;;23.10;6.65;;;;;;;-146.48;100.00;60459.00;5345279;27;20026;-69
2021/12/11 08:37:33;;;;;;;20.63;5.55;;;;;;;-146.48;100.00;60459.00;5346640;27;20037;-69
2021/12/11 08:40:09;;;;;;;17.48;5.53;;;;;;;-146.48;100.00;60459.00;5345388;27;20023;-69
2021/12/11 08:42:40;;;;;;;11.70;3.65;;;;;;;-146.48;100.00;60459.00;5344918;27;20062;-69
2021/12/11 08:45:21;;;;;;;16.80;3.53;;;;;;;-146.48;100.00;60459.00;5346723;27;20051;-69
2021/12/11 08:47:57;;;;;;;13.50;3.05;;;;;;;-146.48;100.00;60459.00;5345056;27;20019;-69
2021/12/11 08:50:30;;;;;;;17.55;3.10;;;;;;;-146.48;100.00;60459.00;5346074;27;20049;-69
2021/12/11 08:53:02;;;;;;;14.40;3.03;;;;;;;-146.48;100.00;60459.00;5345351;27;20076;-70
2021/12/11 08:55:39;;;;;;;12.48;2.28;;;;;;;-146.48;100.00;60459.00;5345629;27;20019;-71
2021/12/11 08:58:13;;;;;;;12.95;2.28;;;;;;;-146.48;100.00;60459.00;5346148;27;20027;-69
2021/12/11 09:00:51;;;;;;;11.98;1.92;;;;;;;-146.48;100.00;60459.00;5345536;27;20050;-70
2021/12/11 09:03:35;;;;;;;17.10;2.60;;;;;;;-146.48;100.00;60459.00;5344972;27;20019;-69
2021/12/11 09:06:10;;;;;;;10.95;2.38;;;;;;;-146.48;100.00;60459.00;5345028;27;20027;-69
2021/12/11 09:08:57;;;;;;;22.90;2.63;;;;;;;-146.48;100.00;60459.00;5344550;27;20467;-70
2021/12/11 09:11:33;;;;;;;14.73;2.25;;;;;;;-146.48;100.00;60459.00;5345903;27;20031;-69
2021/12/11 09:14:10;;;;;;;19.38;1.80;;;;;;;-146.48;100.00;60459.00;5345047;27;20043;-69
2021/12/11 09:17:00;;;;;;;23.48;2.10;;;;;;;-146.48;100.00;60459.00;5344527;27;20027;-69
2021/12/11 09:19:45;;;;;;;8.98;1.83;;;;;;;-146.48;100.00;60459.00;5345227;27;20031;-69
2021/12/11 09:22:33;;;;;;;15.23;1.70;;;;;;;-146.48;100.00;60459.00;5345652;27;20051;-69
2021/12/11 09:25:16;;;;;;;14.15;1.27;;;;;;;-146.48;100.00;60459.00;5345009;27;20118;-71
2021/12/11 09:27:52;;;;;;;14.57;1.70;;;;;;;-146.48;100.00;60459.00;5343554;27;20056;-70
2021/12/11 09:30:35;;;;;;;10.57;1.17;;;;;;;-146.48;100.00;60459.00;5345644;27;20030;-69
2021/12/11 09:33:12;;;;;;;16.90;1.73;;;;;;;-146.48;100.00;60459.00;5346053;27;20074;-69
2021/12/11 09:35:53;;;;;;;14.05;1.27;;;;;;;-146.48;100.00;60459.00;5346146;27;20474;-68
2021/12/11 09:38:30;;;;;;;12.93;2.63;;;;;;;-146.48;100.00;60459.00;5345527;27;20019;-69
2021/12/11 09:41:20;;;;;;;14.80;1.35;;;;;;;-146.48;100.00;60459.00;5345366;27;20054;-70
2021/12/11 09:44:02;;;;;;;13.95;1.42;;;;;;;-146.48;100.00;60459.00;5344187;27;20038;-70
2021/12/11 09:46:39;;;;;;;12.27;1.92;;;;;;;-146.48;100.00;60459.00;5346328;27;20072;-68
2021/12/11 09:49:13;;;;;;;10.00;1.02;;;;;;;-146.48;100.00;60459.00;5345795;27;20065;-68
2021/12/11 09:51:48;;;;;;;14.40;1.92;;;;;;;-146.48;100.00;60459.00;5344676;27;20023;-68
2021/12/11 09:54:23;;;;;;;12.95;1.30;;;;;;;-146.48;100.00;60459.00;5346005;27;20030;-68
2021/12/11 09:57:05;;;;;;;10.68;1.60;;;;;;;-146.48;100.00;60459.00;5345450;27;20034;-68
2021/12/11 09:59:39;;;;;;;20.83;2.55;;;;;;;-146.48;100.00;60459.00;5344952;27;20030;-68
2021/12/11 10:02:16;;;;;;;12.60;1.20;;;;;;;-146.48;100.00;60459.00;5345859;27;20031;-67
2021/12/11 10:04:59;;;;;;;13.63;1.42;;;;;;;-146.48;100.00;60459.00;5344882;27;20027;-69
2021/12/11 10:07:37;;;;;;;15.60;1.55;;;;;;;-146.48;100.00;60459.00;5346067;27;20027;-68
2021/12/11 10:10:08;;;;;;;10.63;1.50;;;;;;;-146.48;100.00;60459.00;5345901;27;20424;-68
2021/12/11 10:12:45;;;;;;;9.75;2.10;;;;;;;-146.48;100.00;60459.00;5344458;27;20027;-69
2021/12/11 10:15:19;;;;;;;11.18;1.45;;;;;;;-146.48;100.00;60459.00;5345674;27;20084;-68
2021/12/11 10:18:01;;;;;;;13.13;1.30;;;;;;;-146.48;100.00;60459.00;5345033;27;20496;-69
2021/12/11 10:21:15;;;;;;;10.57;1.25;;;;;;;-146.48;100.00;60459.00;5344707;27;20027;-68
2021/12/11 10:23:54;;;;;;;10.80;1.10;;;;;;;-146.48;100.00;60459.00;5344772;27;20029;-68
2021/12/11 10:26:27;;;;;;;13.65;2.30;;;;;;;-146.48;100.00;60459.00;5344952;27;20027;-68
2021/12/11 10:29:04;;;;;;;9.35;1.02;;;;;;;-146.48;100.00;60459.00;5344913;27;20104;-68
2021/12/11 10:31:42;;;;;;;12.23;1.65;;;;;;;-146.48;100.00;60459.00;5345832;27;20015;-69
2021/12/11 10:34:17;;;;;;;13.45;1.67;;;;;;;-146.48;100.00;60459.00;5344704;27;20033;-68
2021/12/11 10:37:01;;;;;;;8.93;1.77;;;;;;;-146.48;100.00;60459.00;5344802;27;20019;-68
2021/12/11 10:39:33;;;;;;;13.32;1.50;;;;;;;-146.48;100.00;60459.00;5345155;27;20038;-68
2021/12/11 10:42:05;;;;;;;12.30;1.65;;;;;;;-146.48;100.00;60459.00;5343903;27;20052;-68
2021/12/11 10:44:41;;;;;;;11.07;1.67;;;;;;;-146.48;100.00;60459.00;5345032;27;20024;-69
2021/12/11 10:47:19;;;;;;;14.68;1.92;;;;;;;-146.48;100.00;60459.00;5344572;27;20066;-69
2021/12/11 10:49:51;;;;;;;9.80;1.33;;;;;;;-146.48;100.00;60459.00;5344500;27;20039;-69
2021/12/11 10:52:29;;;;;;;15.57;2.05;;;;;;;-146.48;100.00;60459.00;5345407;27;20470;-69
2021/12/11 10:55:04;;;;;;;12.63;1.95;;;;;;;-146.48;100.00;60459.00;5343964;28;20030;-69
2021/12/11 10:57:35;;;;;;;14.80;1.80;;;;;;;-146.48;100.00;60459.00;5344846;27;20023;-69
2021/12/11 11:00:17;;;;;;;12.77;2.92;;;;;;;-146.48;100.00;60459.00;5344557;27;20064;-68
2021/12/11 11:02:48;;;;;;;15.30;2.05;;;;;;;-146.48;100.00;60459.00;5343854;28;20382;-69
2021/12/11 11:05:22;;;;;;;16.65;2.63;;;;;;;-146.48;100.00;60459.00;5345212;27;20019;-69
2021/12/11 11:07:53;;;;;;;14.07;2.20;;;;;;;-146.48;100.00;60459.00;5343043;27;20535;-69
2021/12/11 11:10:32;;;;;;;13.45;1.60;;;;;;;-146.48;100.00;60459.00;5343116;28;20028;-69
2021/12/11 11:13:12;;;;;;;14.05;1.40;;;;;;;-146.48;100.00;60459.00;5343107;28;20031;-69
2021/12/11 11:15:44;;;;;;;11.82;1.58;;;;;;;-146.48;100.00;60459.00;5342541;28;20509;-70
2021/12/11 11:18:19;;;;;;;12.82;1.40;;;;;;;-146.48;100.00;60459.00;5343746;28;20035;-70
2021/12/11 11:20:57;;;;;;;13.75;2.28;;;;;;;-146.48;100.00;60459.00;5342493;28;20474;-70
2021/12/11 11:23:32;;;;;;;16.17;2.07;;;;;;;-146.48;100.00;60459.00;5343219;28;20061;-70
2021/12/11 11:26:08;;;;;;;11.57;1.98;;;;;;;-146.48;100.00;60459.00;5343398;28;20277;-70
2021/12/11 11:28:40;;;;;;;10.50;1.60;;;;;;;-146.48;100.00;60459.00;5343217;27;20037;-70
2021/12/11 11:31:18;;;;;;;11.60;1.58;;;;;;;-146.48;100.00;60459.00;5343134;28;20024;-70
2021/12/11 11:33:50;;;;;;;12.50;1.60;;;;;;;-146.48;100.00;60459.00;5342630;27;20347;-71
2021/12/11 11:36:26;;;;;;;12.40;1.45;;;;;;;-146.48;100.00;60459.00;5343028;28;20102;-70
2021/12/11 11:38:59;;;;;;;12.95;1.27;;;;;;;-146.48;100.00;60459.00;5343297;27;20504;-71
2021/12/11 11:41:35;;;;;;;17.67;1.35;;;;;;;-146.48;100.00;60459.00;5338191;28;20035;-70
2021/12/11 11:44:06;;;;;;;11.48;1.48;;;;;;;-146.48;100.00;60459.00;5341312;28;20031;-70
2021/12/11 11:46:39;;;;;;;14.13;2.78;;;;;;;-146.48;100.00;60459.00;5342744;28;20035;-71
2021/12/11 11:49:12;;;;;;;10.88;1.52;;;;;;;-146.48;100.00;60459.00;5343434;28;20047;-70
2021/12/11 11:51:48;;;;;;;14.55;1.35;;;;;;;-146.48;100.00;60459.00;5343246;27;20134;-70